BEL2258 EKCH-EBBR
Flight info
| Callsign | BEL2258 |
|---|---|
| Flight time | N/A |
| Altitude | 32000 |
| Route | NEXEN T503 GIMRU DCT MICOS DCT KEGAB DCT ABAMI Z717 NEREL/N0403F240 T855 AGENI/N0369F180 T855 BATTY |
| Aircraft | B739/M-SDE2E3FGHIRWXY/LB1 |
Departure
| Time | 2026-05-04 11:33 |
|---|---|
| Airport | Copenhagen Kastrup Airport (EKCH) |
Arrival
| Time | N/A |
|---|---|
| Airport | Brussels Airport (EBBR) |
| Time | Latitude | Longitude | Altitude | Speed | Heading |
|---|---|---|---|---|---|
| 2026-05-04 11:05 | 55.62699 | 12.64590 | 23 ft | 0 kts | 283° |
| 2026-05-04 11:19 | 55.62689 | 12.64691 | 27 ft | 3 kts | 270° |
| 2026-05-04 11:19 | 55.62689 | 12.64724 | 27 ft | 2 kts | 275° |
| 2026-05-04 11:19 | 55.62689 | 12.64752 | 27 ft | 2 kts | 266° |
| 2026-05-04 11:19 | 55.62690 | 12.64777 | 28 ft | 2 kts | 248° |
| 2026-05-04 11:20 | 55.62695 | 12.64806 | 28 ft | 2 kts | 259° |
| 2026-05-04 11:20 | 55.62697 | 12.64827 | 28 ft | 2 kts | 281° |
| 2026-05-04 11:20 | 55.62696 | 12.64830 | 28 ft | 0 kts | 287° |
| 2026-05-04 11:25 | 55.62697 | 12.64827 | 23 ft | 1 kts | 287° |
| 2026-05-04 11:25 | 55.62699 | 12.64815 | 26 ft | 2 kts | 287° |
| 2026-05-04 11:26 | 55.62712 | 12.64715 | 23 ft | 7 kts | 273° |
| 2026-05-04 11:27 | 55.62137 | 12.64294 | 22 ft | 20 kts | 206° |
| 2026-05-04 11:28 | 55.62015 | 12.64189 | 24 ft | 20 kts | 206° |
| 2026-05-04 11:28 | 55.61884 | 12.64081 | 23 ft | 21 kts | 198° |
| 2026-05-04 11:28 | 55.61755 | 12.64081 | 23 ft | 0 kts | 175° |
| 2026-05-04 11:31 | 55.61268 | 12.63518 | 26 ft | 32 kts | 221° |
| 2026-05-04 11:33 | 55.55673 | 12.55160 | 3128 ft | 213 kts | 219° |
| 2026-05-04 11:33 | 55.54383 | 12.53569 | 3363 ft | 239 kts | 218° |
| 2026-05-04 11:33 | 55.52969 | 12.51855 | 3887 ft | 251 kts | 218° |
| 2026-05-04 11:34 | 55.51522 | 12.50106 | 4665 ft | 253 kts | 217° |
| 2026-05-04 11:34 | 55.50068 | 12.48346 | 5487 ft | 253 kts | 217° |
| 2026-05-04 11:34 | 55.48609 | 12.46576 | 6296 ft | 255 kts | 217° |
| 2026-05-04 11:34 | 55.47139 | 12.44789 | 7032 ft | 257 kts | 218° |
| 2026-05-04 11:35 | 55.45661 | 12.42991 | 7795 ft | 258 kts | 218° |
| 2026-05-04 11:35 | 55.44176 | 12.41182 | 8582 ft | 259 kts | 218° |
| 2026-05-04 11:35 | 55.42683 | 12.39365 | 9307 ft | 262 kts | 218° |
| 2026-05-04 11:35 | 55.41178 | 12.37531 | 10029 ft | 264 kts | 218° |
| 2026-05-04 11:36 | 55.39632 | 12.35648 | 10405 ft | 280 kts | 218° |
| 2026-05-04 11:36 | 55.37966 | 12.33613 | 10562 ft | 302 kts | 218° |
| 2026-05-04 11:36 | 55.36174 | 12.31431 | 10697 ft | 324 kts | 217° |
| 2026-05-04 11:36 | 55.34272 | 12.29123 | 10939 ft | 339 kts | 217° |
| 2026-05-04 11:37 | 55.32316 | 12.26757 | 11540 ft | 343 kts | 217° |
| 2026-05-04 11:37 | 55.30374 | 12.24411 | 12216 ft | 344 kts | 217° |
| 2026-05-04 11:37 | 55.28390 | 12.22015 | 12864 ft | 347 kts | 217° |
| 2026-05-04 11:37 | 55.26391 | 12.19600 | 13462 ft | 351 kts | 217° |
| 2026-05-04 11:38 | 55.24368 | 12.17159 | 14036 ft | 355 kts | 217° |
| 2026-05-04 11:38 | 55.22322 | 12.14693 | 14608 ft | 357 kts | 217° |
| 2026-05-04 11:38 | 55.20264 | 12.12218 | 15192 ft | 360 kts | 218° |
| 2026-05-04 11:38 | 55.18215 | 12.09665 | 15732 ft | 362 kts | 219° |
| 2026-05-04 11:39 | 55.16174 | 12.07047 | 16259 ft | 365 kts | 219° |
| 2026-05-04 11:39 | 55.14119 | 12.04392 | 16790 ft | 368 kts | 219° |
| 2026-05-04 11:40 | 55.01447 | 11.88180 | 19813 ft | 382 kts | 219° |
| 2026-05-04 11:41 | 54.99292 | 11.85446 | 20263 ft | 385 kts | 219° |
| 2026-05-04 11:41 | 54.97125 | 11.82699 | 20715 ft | 387 kts | 219° |
| 2026-05-04 11:41 | 54.94937 | 11.79931 | 21175 ft | 389 kts | 219° |
| 2026-05-04 11:41 | 54.92747 | 11.77162 | 21649 ft | 390 kts | 219° |
| 2026-05-04 11:42 | 54.90571 | 11.74416 | 22085 ft | 392 kts | 219° |
| 2026-05-04 11:42 | 54.88355 | 11.71621 | 22500 ft | 395 kts | 219° |
| 2026-05-04 11:42 | 54.86125 | 11.68813 | 22931 ft | 397 kts | 219° |
| 2026-05-04 11:42 | 54.83883 | 11.65994 | 23400 ft | 399 kts | 219° |
| 2026-05-04 11:43 | 54.81633 | 11.63170 | 23799 ft | 400 kts | 219° |
| 2026-05-04 11:43 | 54.79375 | 11.60346 | 24167 ft | 401 kts | 219° |
| 2026-05-04 11:43 | 54.77103 | 11.57515 | 24537 ft | 403 kts | 219° |
| 2026-05-04 11:43 | 54.74820 | 11.54676 | 24890 ft | 404 kts | 219° |
| 2026-05-04 11:44 | 54.72530 | 11.51833 | 25253 ft | 405 kts | 219° |
| 2026-05-04 11:44 | 54.70238 | 11.48989 | 25611 ft | 406 kts | 219° |
| 2026-05-04 11:44 | 54.67933 | 11.46133 | 25948 ft | 408 kts | 219° |
| 2026-05-04 11:44 | 54.65649 | 11.43306 | 26298 ft | 409 kts | 219° |
| 2026-05-04 11:45 | 54.63332 | 11.40441 | 26656 ft | 410 kts | 219° |
| 2026-05-04 11:45 | 54.61008 | 11.37571 | 26990 ft | 411 kts | 219° |
| 2026-05-04 11:45 | 54.58687 | 11.34709 | 27408 ft | 410 kts | 219° |
| 2026-05-04 11:45 | 54.56377 | 11.31869 | 27959 ft | 406 kts | 219° |
| 2026-05-04 11:46 | 54.54091 | 11.29065 | 28510 ft | 402 kts | 219° |
| 2026-05-04 11:46 | 54.51814 | 11.26281 | 28935 ft | 401 kts | 219° |
| 2026-05-04 11:46 | 54.49532 | 11.23494 | 29289 ft | 402 kts | 219° |
| 2026-05-04 11:46 | 54.47246 | 11.20705 | 29666 ft | 402 kts | 219° |
| 2026-05-04 11:47 | 54.44971 | 11.17934 | 30167 ft | 399 kts | 219° |
| 2026-05-04 11:47 | 54.42718 | 11.15194 | 30609 ft | 395 kts | 219° |
| 2026-05-04 11:47 | 54.40475 | 11.12468 | 30902 ft | 396 kts | 219° |
| 2026-05-04 11:47 | 54.38217 | 11.09724 | 31094 ft | 399 kts | 219° |
| 2026-05-04 11:48 | 54.35976 | 11.07005 | 31385 ft | 398 kts | 219° |
| 2026-05-04 11:48 | 54.33716 | 11.04268 | 31760 ft | 396 kts | 218° |
| 2026-05-04 11:48 | 54.31469 | 11.01554 | 32047 ft | 395 kts | 218° |
| 2026-05-04 11:48 | 54.29196 | 10.98818 | 31889 ft | 401 kts | 218° |
| 2026-05-04 11:49 | 54.26918 | 10.96115 | 32022 ft | 397 kts | 218° |
| 2026-05-04 11:49 | 54.24641 | 10.93430 | 31920 ft | 398 kts | 218° |
| 2026-05-04 11:49 | 54.22377 | 10.90767 | 32017 ft | 394 kts | 218° |
| 2026-05-04 11:50 | 54.17856 | 10.85451 | 32003 ft | 393 kts | 218° |
| 2026-05-04 11:50 | 54.13360 | 10.80171 | 31999 ft | 392 kts | 218° |
| 2026-05-04 11:51 | 54.09614 | 10.75778 | 32008 ft | 392 kts | 218° |
| 2026-05-04 11:51 | 54.05103 | 10.70500 | 32004 ft | 393 kts | 218° |
| 2026-05-04 11:52 | 54.00574 | 10.65216 | 32008 ft | 395 kts | 218° |
| 2026-05-04 11:52 | 53.96010 | 10.59903 | 32020 ft | 397 kts | 218° |
| 2026-05-04 11:53 | 53.91427 | 10.54585 | 32021 ft | 399 kts | 218° |
| 2026-05-04 11:53 | 53.86867 | 10.49308 | 32019 ft | 400 kts | 218° |
| 2026-05-04 11:55 | 53.68373 | 10.28051 | 32007 ft | 401 kts | 217° |
| 2026-05-04 11:56 | 53.63754 | 10.22778 | 32004 ft | 400 kts | 217° |
| 2026-05-04 11:56 | 53.59142 | 10.17527 | 32005 ft | 399 kts | 217° |
| 2026-05-04 11:57 | 53.54537 | 10.12297 | 32002 ft | 399 kts | 217° |
| 2026-05-04 11:57 | 53.49938 | 10.07087 | 31987 ft | 398 kts | 217° |
| 2026-05-04 11:58 | 53.45341 | 10.01895 | 32011 ft | 398 kts | 217° |
| 2026-05-04 11:58 | 53.40769 | 9.96744 | 32007 ft | 398 kts | 217° |
| 2026-05-04 11:59 | 53.36156 | 9.91560 | 31994 ft | 397 kts | 217° |
| 2026-05-04 11:59 | 53.31589 | 9.86442 | 31986 ft | 397 kts | 217° |
| 2026-05-04 12:00 | 53.26995 | 9.81307 | 31983 ft | 398 kts | 217° |
| 2026-05-04 12:00 | 53.22398 | 9.76182 | 31974 ft | 398 kts | 217° |
| 2026-05-04 12:01 | 53.17771 | 9.71036 | 31984 ft | 398 kts | 217° |
| 2026-05-04 12:02 | 53.01593 | 9.53152 | 31973 ft | 399 kts | 217° |
| 2026-05-04 12:03 | 52.96974 | 9.48073 | 31978 ft | 398 kts | 217° |
| 2026-05-04 12:03 | 52.92360 | 9.43005 | 31978 ft | 397 kts | 218° |
| 2026-05-04 12:04 | 52.88208 | 9.37157 | 32088 ft | 391 kts | 225° |
| 2026-05-04 12:04 | 52.86176 | 9.34053 | 31965 ft | 395 kts | 225° |
| 2026-05-04 12:04 | 52.84153 | 9.30985 | 32009 ft | 394 kts | 225° |
| 2026-05-04 12:05 | 52.80070 | 9.24844 | 31986 ft | 398 kts | 224° |
| 2026-05-04 12:05 | 52.75987 | 9.18750 | 31979 ft | 396 kts | 224° |
| 2026-05-04 12:06 | 52.71903 | 9.12680 | 31985 ft | 393 kts | 224° |
| 2026-05-04 12:06 | 52.67839 | 9.06653 | 31993 ft | 391 kts | 224° |
| 2026-05-04 12:07 | 52.63772 | 9.00637 | 31992 ft | 396 kts | 224° |
| 2026-05-04 12:07 | 52.59646 | 8.94548 | 31988 ft | 398 kts | 224° |
| 2026-05-04 12:08 | 52.55522 | 8.88481 | 31978 ft | 396 kts | 224° |
| 2026-05-04 12:08 | 52.51421 | 8.82463 | 31968 ft | 394 kts | 224° |
| 2026-05-04 12:09 | 52.47358 | 8.76516 | 31957 ft | 395 kts | 224° |
| 2026-05-04 12:09 | 52.43265 | 8.70540 | 31975 ft | 394 kts | 224° |
| 2026-05-04 12:10 | 52.39178 | 8.64588 | 31994 ft | 393 kts | 224° |
| 2026-05-04 12:10 | 52.35080 | 8.58635 | 31991 ft | 393 kts | 224° |
| 2026-05-04 12:11 | 52.30979 | 8.52694 | 31979 ft | 394 kts | 224° |
| 2026-05-04 12:11 | 52.26876 | 8.46765 | 31967 ft | 394 kts | 223° |
| 2026-05-04 12:12 | 52.22767 | 8.40843 | 31959 ft | 395 kts | 223° |
| 2026-05-04 12:12 | 52.18640 | 8.34910 | 31971 ft | 396 kts | 223° |
| 2026-05-04 12:14 | 52.02150 | 8.11356 | 31960 ft | 394 kts | 223° |
| 2026-05-04 12:15 | 51.98034 | 8.05514 | 31960 ft | 393 kts | 223° |
| 2026-05-04 12:15 | 51.93920 | 7.99690 | 31987 ft | 393 kts | 223° |
| 2026-05-04 12:16 | 51.89797 | 7.93867 | 32007 ft | 393 kts | 223° |
| 2026-05-04 12:16 | 51.85667 | 7.88050 | 32009 ft | 393 kts | 223° |
| 2026-05-04 12:17 | 51.81538 | 7.82249 | 32000 ft | 394 kts | 223° |
| 2026-05-04 12:17 | 51.77379 | 7.76419 | 31996 ft | 395 kts | 222° |
| 2026-05-04 12:18 | 51.73223 | 7.70610 | 31989 ft | 395 kts | 222° |
| 2026-05-04 12:18 | 51.69084 | 7.64837 | 31985 ft | 396 kts | 222° |
| 2026-05-04 12:19 | 51.64918 | 7.59043 | 31978 ft | 394 kts | 222° |
| 2026-05-04 12:19 | 51.60767 | 7.53283 | 31976 ft | 393 kts | 222° |
| 2026-05-04 12:20 | 51.56627 | 7.47553 | 31972 ft | 392 kts | 222° |
| 2026-05-04 12:20 | 51.52488 | 7.41838 | 31961 ft | 392 kts | 221° |
| 2026-05-04 12:21 | 51.48353 | 7.36140 | 31963 ft | 392 kts | 221° |
| 2026-05-04 12:21 | 51.44204 | 7.30439 | 31971 ft | 394 kts | 221° |
| 2026-05-04 12:22 | 51.40528 | 7.23977 | 31992 ft | 393 kts | 234° |
| 2026-05-04 12:22 | 51.37322 | 7.16895 | 31961 ft | 394 kts | 233° |
| 2026-05-04 12:23 | 51.34083 | 7.09962 | 31936 ft | 379 kts | 232° |
| 2026-05-04 12:23 | 51.30982 | 7.03341 | 31960 ft | 370 kts | 232° |
| 2026-05-04 12:24 | 51.27926 | 6.96820 | 31472 ft | 370 kts | 232° |
| 2026-05-04 12:24 | 51.26408 | 6.93582 | 31135 ft | 363 kts | 232° |
| 2026-05-04 12:24 | 51.24896 | 6.90359 | 30789 ft | 356 kts | 232° |
| 2026-05-04 12:25 | 51.23410 | 6.87198 | 30084 ft | 360 kts | 232° |
| 2026-05-04 12:25 | 51.21937 | 6.84066 | 29812 ft | 349 kts | 232° |
| 2026-05-04 12:25 | 51.20474 | 6.80959 | 29364 ft | 344 kts | 232° |
| 2026-05-04 12:25 | 51.19039 | 6.77915 | 28710 ft | 344 kts | 232° |
| 2026-05-04 12:26 | 51.17701 | 6.75080 | 28748 ft | 329 kts | 231° |
| 2026-05-04 12:26 | 51.16321 | 6.72160 | 28504 ft | 330 kts | 231° |
| 2026-05-04 12:26 | 51.14902 | 6.69164 | 28028 ft | 346 kts | 231° |
| 2026-05-04 12:26 | 51.13433 | 6.66065 | 27687 ft | 355 kts | 231° |
| 2026-05-04 12:27 | 51.11939 | 6.62912 | 27227 ft | 357 kts | 231° |
| 2026-05-04 12:27 | 51.10448 | 6.59771 | 26694 ft | 353 kts | 231° |
| 2026-05-04 12:27 | 51.08971 | 6.56681 | 26159 ft | 349 kts | 230° |
| 2026-05-04 12:27 | 51.07357 | 6.53849 | 25602 ft | 343 kts | 224° |
| 2026-05-04 12:28 | 51.05663 | 6.51211 | 25112 ft | 339 kts | 223° |
| 2026-05-04 12:28 | 51.03983 | 6.48603 | 24593 ft | 337 kts | 223° |
| 2026-05-04 12:28 | 51.02315 | 6.46004 | 24098 ft | 335 kts | 223° |
| 2026-05-04 12:28 | 51.00675 | 6.43440 | 23661 ft | 333 kts | 224° |
| 2026-05-04 12:29 | 50.99010 | 6.40829 | 23212 ft | 333 kts | 224° |
| 2026-05-04 12:29 | 50.97375 | 6.38264 | 22812 ft | 336 kts | 224° |
| 2026-05-04 12:29 | 50.95689 | 6.35617 | 22404 ft | 337 kts | 223° |
| 2026-05-04 12:29 | 50.94050 | 6.33043 | 22014 ft | 335 kts | 223° |
| 2026-05-04 12:30 | 50.92398 | 6.30451 | 21624 ft | 334 kts | 223° |
| 2026-05-04 12:30 | 50.90749 | 6.27865 | 21237 ft | 332 kts | 223° |
| 2026-05-04 12:30 | 50.89110 | 6.25297 | 20858 ft | 331 kts | 223° |
| 2026-05-04 12:30 | 50.87470 | 6.22731 | 20475 ft | 330 kts | 223° |
| 2026-05-04 12:31 | 50.85837 | 6.20178 | 20098 ft | 330 kts | 223° |
| 2026-05-04 12:31 | 50.84203 | 6.17627 | 19699 ft | 330 kts | 223° |
| 2026-05-04 12:31 | 50.82564 | 6.15070 | 19278 ft | 331 kts | 223° |
| 2026-05-04 12:31 | 50.80920 | 6.12509 | 18867 ft | 332 kts | 223° |
| 2026-05-04 12:32 | 50.79285 | 6.09960 | 18456 ft | 329 kts | 223° |
| 2026-05-04 12:32 | 50.76043 | 6.04922 | 17573 ft | 324 kts | 223° |
| 2026-05-04 12:32 | 50.74460 | 6.02393 | 17091 ft | 324 kts | 226° |
| 2026-05-04 12:33 | 50.72987 | 5.99736 | 16655 ft | 318 kts | 228° |
| 2026-05-04 12:33 | 50.71573 | 5.97101 | 16270 ft | 311 kts | 228° |
| 2026-05-04 12:33 | 50.70169 | 5.94506 | 15771 ft | 312 kts | 228° |
| 2026-05-04 12:33 | 50.68745 | 5.91898 | 15351 ft | 314 kts | 228° |
| 2026-05-04 12:34 | 50.67314 | 5.89285 | 14909 ft | 317 kts | 229° |
| 2026-05-04 12:34 | 50.66199 | 5.86291 | 14322 ft | 322 kts | 252° |
| 2026-05-04 12:34 | 50.65991 | 5.82809 | 13961 ft | 319 kts | 275° |
| 2026-05-04 12:34 | 50.66562 | 5.79518 | 13491 ft | 319 kts | 295° |
| 2026-05-04 12:35 | 50.67577 | 5.76433 | 13167 ft | 313 kts | 296° |
| 2026-05-04 12:35 | 50.68585 | 5.73369 | 12619 ft | 315 kts | 296° |
| 2026-05-04 12:35 | 50.69259 | 5.71305 | 12334 ft | 313 kts | 296° |